Time;durP1;ratioP1;P1;durP2;ratioP2;P2;SDS_P1;SDS_P2;PMS_P1;PMS_P2;Temp;Humidity;BMP_temperature;BMP_pressure;BME280_temperature;BME280_humidity;BME280_pressure;Samples;Min_cycle;Max_cycle;Signal;HPM_P1;HPM_P2
2023/11/09 00:00:21;;;;;;;0.00;0.00;;;9.80;99.90;;;;;;5009630;28;20062;-66
2023/11/09 00:02:47;;;;;;;0.03;0.03;;;9.70;99.90;;;;;;5008343;28;20045;-66
2023/11/09 00:05:12;;;;;;;0.60;0.10;;;9.70;99.90;;;;;;5031684;28;20092;-66
2023/11/09 00:07:39;;;;;;;0.25;0.08;;;9.80;99.90;;;;;;5039907;28;20042;-66
2023/11/09 00:10:06;;;;;;;1.48;1.00;;;9.80;99.90;;;;;;5006619;28;20324;-66
2023/11/09 00:12:32;;;;;;;0.30;0.20;;;9.80;99.90;;;;;;4999246;28;20042;-65
2023/11/09 00:15:01;;;;;;;0.10;0.03;;;9.80;99.90;;;;;;5003244;28;20026;-66
2023/11/09 00:17:26;;;;;;;1.00;0.15;;;9.80;99.90;;;;;;5008448;28;20544;-66
2023/11/09 00:19:52;;;;;;;0.22;0.10;;;9.80;99.90;;;;;;5006754;28;20044;-66
2023/11/09 00:22:19;;;;;;;0.20;0.10;;;9.80;99.90;;;;;;5006138;28;20045;-66
2023/11/09 00:24:47;;;;;;;0.17;0.05;;;9.80;99.90;;;;;;5006821;28;20052;-66
2023/11/09 00:27:22;;;;;;;0.60;0.28;;;9.80;99.90;;;;;;5035720;28;20057;-66
2023/11/09 00:29:48;;;;;;;0.00;0.00;;;9.80;99.90;;;;;;5038031;28;20125;-66
2023/11/09 00:32:17;;;;;;;0.13;0.10;;;9.80;99.90;;;;;;5001182;28;20566;-67
2023/11/09 00:34:44;;;;;;;0.05;0.00;;;9.70;99.90;;;;;;5008374;28;20399;-67
2023/11/09 00:37:10;;;;;;;0.00;0.00;;;9.80;99.90;;;;;;5005526;28;20117;-66
2023/11/09 00:39:37;;;;;;;0.30;0.00;;;9.80;99.90;;;;;;5002681;28;20119;-67
2023/11/09 00:42:05;;;;;;;0.00;0.00;;;9.80;99.90;;;;;;5007028;28;20436;-67
2023/11/09 00:44:31;;;;;;;1.35;0.20;;;9.80;99.90;;;;;;5006961;28;20434;-67
2023/11/09 00:46:57;;;;;;;0.20;0.20;;;9.80;99.90;;;;;;5007733;28;20045;-65
2023/11/09 00:49:23;;;;;;;0.28;0.13;;;9.80;99.90;;;;;;5034375;28;20042;-66
2023/11/09 00:51:48;;;;;;;0.00;0.00;;;9.80;99.90;;;;;;5033422;28;20053;-66
2023/11/09 00:54:14;;;;;;;0.10;0.05;;;9.70;99.90;;;;;;5004749;28;20495;-65
2023/11/09 00:56:40;;;;;;;0.32;0.10;;;9.80;99.90;;;;;;5007306;28;20125;-65
2023/11/09 00:59:06;;;;;;;0.03;0.00;;;9.80;99.90;;;;;;5002474;28;20049;-65
2023/11/09 01:01:31;;;;;;;0.93;0.20;;;9.80;99.90;;;;;;4999222;28;20042;-65
2023/11/09 01:03:57;;;;;;;0.10;0.00;;;9.80;99.90;;;;;;5003850;28;20037;-65
2023/11/09 01:06:23;;;;;;;0.00;0.00;;;9.80;99.90;;;;;;5007936;28;20035;-65
2023/11/09 01:08:49;;;;;;;1.60;0.10;;;9.80;99.90;;;;;;5000357;28;20538;-65
2023/11/09 01:11:25;;;;;;;0.00;0.00;;;9.80;99.90;;;;;;5007961;28;20098;-66
2023/11/09 01:13:54;;;;;;;0.00;0.00;;;9.80;99.90;;;;;;5002345;28;20141;-65
2023/11/09 01:16:20;;;;;;;0.10;0.08;;;9.80;99.90;;;;;;5008447;28;20112;-65
2023/11/09 01:18:48;;;;;;;0.10;0.00;;;9.80;99.90;;;;;;5000972;28;20037;-64
2023/11/09 01:21:14;;;;;;;0.10;0.00;;;9.80;99.90;;;;;;5000575;28;20049;-65
2023/11/09 01:23:40;;;;;;;0.30;0.10;;;9.80;99.90;;;;;;5006853;28;20534;-64
2023/11/09 01:26:09;;;;;;;0.30;0.17;;;9.80;99.90;;;;;;5011238;28;20038;-64
2023/11/09 01:28:35;;;;;;;0.20;0.00;;;9.80;99.90;;;;;;5002779;28;20046;-64
2023/11/09 01:31:03;;;;;;;0.30;0.20;;;9.90;99.90;;;;;;5034911;28;20252;-64
2023/11/09 01:33:29;;;;;;;0.10;0.00;;;9.80;99.90;;;;;;5006814;28;20057;-63
2023/11/09 01:35:55;;;;;;;0.08;0.00;;;9.80;99.90;;;;;;5003266;28;20200;-64
2023/11/09 01:38:20;;;;;;;0.00;0.00;;;9.80;99.90;;;;;;5001954;28;20153;-64
2023/11/09 01:40:53;;;;;;;0.10;0.00;;;9.80;99.90;;;;;;5035534;28;20064;-64
2023/11/09 01:43:19;;;;;;;0.10;0.10;;;9.90;99.90;;;;;;5041074;28;20623;-64
2023/11/09 01:45:45;;;;;;;0.10;0.05;;;9.90;99.90;;;;;;5001120;28;20041;-64
2023/11/09 01:48:13;;;;;;;0.00;0.00;;;9.80;99.90;;;;;;5005902;28;20044;-63
2023/11/09 01:50:39;;;;;;;0.52;0.20;;;9.80;99.90;;;;;;5002657;28;20470;-64
2023/11/09 01:53:07;;;;;;;0.00;0.00;;;9.80;99.90;;;;;;5006980;28;20048;-63
2023/11/09 01:55:34;;;;;;;0.63;0.10;;;9.90;99.90;;;;;;5005178;28;20294;-64
2023/11/09 01:58:02;;;;;;;0.35;0.10;;;9.80;99.90;;;;;;5006985;28;20386;-64
2023/11/09 02:00:28;;;;;;;0.10;0.08;;;9.80;99.90;;;;;;5003542;28;20069;-64
2023/11/09 02:02:56;;;;;;;0.10;0.10;;;9.80;99.90;;;;;;5004579;28;20418;-64
2023/11/09 02:05:23;;;;;;;0.00;0.00;;;9.90;99.90;;;;;;5005532;28;20029;-64
2023/11/09 02:07:52;;;;;;;0.10;0.10;;;9.80;99.90;;;;;;5010565;28;20084;-64
2023/11/09 02:10:19;;;;;;;0.10;0.10;;;9.80;99.90;;;;;;5004119;28;20366;-65
2023/11/09 02:12:45;;;;;;;0.10;0.10;;;9.80;99.90;;;;;;5009036;28;20058;-65
2023/11/09 02:15:11;;;;;;;0.20;0.10;;;9.80;99.90;;;;;;4999127;28;20042;-65
2023/11/09 02:17:37;;;;;;;0.00;0.00;;;9.90;99.90;;;;;;5005240;28;20069;-64
2023/11/09 02:20:04;;;;;;;0.00;0.00;;;9.80;99.90;;;;;;5000411;28;20057;-65
2023/11/09 02:22:31;;;;;;;0.00;0.00;;;9.80;99.90;;;;;;5005253;28;20056;-64
2023/11/09 02:24:58;;;;;;;0.00;0.00;;;9.80;99.90;;;;;;5003881;28;20477;-64
2023/11/09 02:27:24;;;;;;;0.08;0.00;;;9.80;99.90;;;;;;5003800;28;20132;-65
2023/11/09 02:29:49;;;;;;;0.75;0.25;;;9.80;99.90;;;;;;5000590;28;20549;-63
2023/11/09 02:32:17;;;;;;;0.00;0.00;;;9.80;99.90;;;;;;5002845;28;20036;-63
2023/11/09 02:34:43;;;;;;;0.20;0.00;;;9.80;99.90;;;;;;5001291;28;20689;-63
2023/11/09 02:37:11;;;;;;;0.00;0.00;;;9.80;99.90;;;;;;5001499;28;20050;-63
2023/11/09 02:39:37;;;;;;;0.20;0.13;;;9.80;99.90;;;;;;5001696;28;20049;-64
2023/11/09 02:42:03;;;;;;;0.05;0.00;;;9.90;99.90;;;;;;5005621;28;20037;-63
2023/11/09 02:44:29;;;;;;;1.58;0.32;;;9.80;99.90;;;;;;5005808;28;20034;-64
2023/11/09 02:46:55;;;;;;;0.00;0.00;;;9.80;99.90;;;;;;4997655;28;20176;-64
2023/11/09 02:49:21;;;;;;;0.00;0.00;;;9.80;99.90;;;;;;5005948;28;20038;-63
2023/11/09 02:51:47;;;;;;;0.03;0.03;;;9.90;99.90;;;;;;5003713;28;20061;-64
2023/11/09 02:54:13;;;;;;;0.05;0.05;;;9.90;99.90;;;;;;5002348;28;20042;-64
2023/11/09 02:56:39;;;;;;;0.20;0.10;;;9.90;99.90;;;;;;5001845;28;20521;-64
2023/11/09 02:59:05;;;;;;;0.88;0.20;;;9.90;99.90;;;;;;5003259;28;20109;-64
2023/11/09 03:01:31;;;;;;;0.75;0.08;;;9.80;99.90;;;;;;4999754;28;20038;-63
2023/11/09 03:03:57;;;;;;;0.00;0.00;;;9.90;99.90;;;;;;5039050;28;20041;-63
2023/11/09 03:06:23;;;;;;;0.10;0.00;;;9.90;99.90;;;;;;5001269;28;20033;-64
2023/11/09 03:08:49;;;;;;;0.00;0.00;;;9.80;99.90;;;;;;5005162;28;20092;-64
2023/11/09 03:11:19;;;;;;;0.08;0.08;;;9.80;99.90;;;;;;5034240;28;20056;-64
2023/11/09 03:13:45;;;;;;;0.00;0.00;;;9.90;99.90;;;;;;5001353;28;20073;-64
2023/11/09 03:16:12;;;;;;;0.30;0.10;;;9.80;99.90;;;;;;5003970;28;20069;-64
2023/11/09 03:18:39;;;;;;;0.00;0.00;;;9.80;99.90;;;;;;5002717;28;20425;-64
2023/11/09 03:21:08;;;;;;;0.10;0.05;;;9.80;99.90;;;;;;5004560;28;20074;-64
2023/11/09 03:23:35;;;;;;;0.17;0.10;;;9.90;99.90;;;;;;5002603;28;20042;-65
2023/11/09 03:26:00;;;;;;;0.00;0.00;;;9.80;99.90;;;;;;5009481;28;20088;-65
2023/11/09 03:28:26;;;;;;;0.15;0.00;;;9.80;99.90;;;;;;5008337;28;20042;-64
2023/11/09 03:30:52;;;;;;;0.10;0.10;;;9.80;99.90;;;;;;5007476;28;20048;-65
2023/11/09 03:33:18;;;;;;;0.00;0.00;;;9.90;99.90;;;;;;5003169;28;20034;-64
2023/11/09 03:35:44;;;;;;;0.20;0.20;;;9.80;99.90;;;;;;5003317;28;20116;-64
2023/11/09 03:38:10;;;;;;;0.00;0.00;;;9.80;99.90;;;;;;5005723;28;20030;-64
2023/11/09 03:40:36;;;;;;;0.13;0.10;;;9.90;99.90;;;;;;5005285;28;20252;-64
2023/11/09 03:43:01;;;;;;;0.00;0.00;;;9.80;99.90;;;;;;5001433;28;20483;-64
2023/11/09 03:45:27;;;;;;;0.28;0.00;;;9.90;99.90;;;;;;5000964;28;20042;-64
2023/11/09 03:47:53;;;;;;;0.00;0.00;;;9.80;99.90;;;;;;5001930;28;20475;-64
2023/11/09 03:50:19;;;;;;;0.00;0.00;;;9.90;99.90;;;;;;5006151;28;20388;-65
2023/11/09 03:52:45;;;;;;;0.00;0.00;;;9.90;99.90;;;;;;4998671;28;20056;-64
2023/11/09 03:55:11;;;;;;;0.10;0.08;;;9.80;99.90;;;;;;5006459;28;20042;-64
2023/11/09 03:57:38;;;;;;;0.03;0.00;;;9.80;99.90;;;;;;5002664;28;20038;-65
2023/11/09 04:00:10;;;;;;;0.75;0.15;;;9.80;99.90;;;;;;5007981;28;20416;-64
2023/11/09 04:02:37;;;;;;;0.10;0.10;;;9.80;99.90;;;;;;5004463;28;20046;-64
2023/11/09 04:05:03;;;;;;;0.15;0.00;;;9.90;99.90;;;;;;5000693;28;20100;-65
2023/11/09 04:07:32;;;;;;;0.03;0.03;;;9.80;99.90;;;;;;5003530;28;20494;-65
2023/11/09 04:09:58;;;;;;;0.00;0.00;;;9.80;99.90;;;;;;5002499;28;20390;-64
2023/11/09 04:12:24;;;;;;;0.20;0.10;;;9.80;99.90;;;;;;4998056;28;20050;-65
2023/11/09 04:14:50;;;;;;;0.00;0.00;;;9.90;99.90;;;;;;5005490;28;20037;-64
2023/11/09 04:17:15;;;;;;;0.00;0.00;;;9.80;99.90;;;;;;5002926;28;20100;-64
2023/11/09 04:19:42;;;;;;;0.43;0.17;;;9.80;99.90;;;;;;5005171;28;20106;-64
2023/11/09 04:22:08;;;;;;;1.17;0.08;;;9.80;99.90;;;;;;4998784;28;20053;-65
2023/11/09 04:24:34;;;;;;;0.08;0.08;;;9.90;99.90;;;;;;4999537;28;20156;-64
2023/11/09 04:27:01;;;;;;;0.00;0.00;;;9.90;99.90;;;;;;5003795;28;20061;-63
2023/11/09 04:29:27;;;;;;;0.17;0.17;;;9.90;99.90;;;;;;5002627;28;20402;-64
2023/11/09 04:31:53;;;;;;;0.20;0.20;;;9.90;99.90;;;;;;5009775;28;20037;-63
2023/11/09 04:34:20;;;;;;;0.05;0.05;;;9.90;99.90;;;;;;5012253;28;20107;-64
2023/11/09 04:36:49;;;;;;;0.10;0.00;;;9.90;99.90;;;;;;5006514;28;20125;-63
2023/11/09 04:39:27;;;;;;;0.38;0.10;;;9.90;99.90;;;;;;5004909;28;20045;-63
2023/11/09 04:41:57;;;;;;;0.63;0.20;;;9.90;99.90;;;;;;5008584;28;20038;-63
2023/11/09 04:44:23;;;;;;;0.17;0.13;;;9.90;99.90;;;;;;5006935;28;20092;-64
2023/11/09 04:46:52;;;;;;;0.10;0.10;;;9.90;99.90;;;;;;5005150;28;20046;-64
2023/11/09 04:49:20;;;;;;;0.30;0.20;;;10.00;99.90;;;;;;5003704;28;20042;-64
2023/11/09 04:51:48;;;;;;;0.22;0.15;;;9.90;99.90;;;;;;5009452;28;20069;-64
2023/11/09 04:54:18;;;;;;;0.10;0.10;;;10.00;99.90;;;;;;5010765;28;20521;-63
2023/11/09 05:07:25;;;;;;;0.28;0.13;;;10.00;99.90;;;;;;5005331;28;20073;-64
2023/11/09 05:09:51;;;;;;;0.20;0.20;;;10.10;99.90;;;;;;5037823;28;20049;-64
2023/11/09 05:12:18;;;;;;;0.43;0.38;;;10.00;99.90;;;;;;5006943;28;20034;-64
2023/11/09 05:14:44;;;;;;;0.52;0.40;;;10.10;99.90;;;;;;5042136;28;20431;-63
2023/11/09 05:17:13;;;;;;;0.40;0.20;;;10.10;99.90;;;;;;5006763;28;20038;-64
2023/11/09 05:19:41;;;;;;;0.43;0.40;;;10.10;99.90;;;;;;5006066;28;20085;-64
2023/11/09 05:22:10;;;;;;;0.50;0.40;;;10.10;99.90;;;;;;5004160;28;20057;-64
2023/11/09 05:24:37;;;;;;;0.32;0.20;;;10.10;99.90;;;;;;5008721;28;20100;-64
2023/11/09 05:27:03;;;;;;;0.70;0.30;;;10.10;99.90;;;;;;5006514;28;20065;-64
2023/11/09 05:29:30;;;;;;;0.90;0.30;;;10.10;99.90;;;;;;5009019;28;20219;-64
2023/11/09 05:31:56;;;;;;;0.82;0.43;;;10.10;99.90;;;;;;5010366;28;20041;-65
2023/11/09 05:34:22;;;;;;;1.40;0.50;;;10.10;99.90;;;;;;5006705;28;20040;-64
2023/11/09 05:36:48;;;;;;;0.40;0.30;;;10.10;99.90;;;;;;5011891;28;20041;-65
2023/11/09 05:39:14;;;;;;;1.58;0.38;;;10.10;99.90;;;;;;5000785;28;20042;-64
2023/11/09 05:41:40;;;;;;;0.77;0.60;;;10.10;99.90;;;;;;5002239;28;20054;-64
2023/11/09 05:44:07;;;;;;;0.52;0.40;;;10.10;99.90;;;;;;5042874;28;20049;-64
2023/11/09 05:46:33;;;;;;;0.80;0.50;;;10.10;99.90;;;;;;4999052;28;20034;-65
2023/11/09 05:48:59;;;;;;;17.00;11.70;;;10.10;99.90;;;;;;5009266;28;20521;-65
2023/11/09 05:51:26;;;;;;;1.65;1.10;;;10.10;99.90;;;;;;5001453;28;20057;-64
2023/11/09 05:53:56;;;;;;;0.82;0.52;;;10.10;99.90;;;;;;5019395;28;20089;-64
2023/11/09 05:56:23;;;;;;;0.80;0.60;;;10.10;99.90;;;;;;5000388;28;20050;-64
2023/11/09 05:58:50;;;;;;;0.77;0.60;;;10.10;99.90;;;;;;5008020;28;20086;-65
2023/11/09 06:01:16;;;;;;;0.63;0.35;;;10.10;99.90;;;;;;5001140;28;20034;-65
2023/11/09 06:03:42;;;;;;;1.02;0.70;;;10.10;99.90;;;;;;5039490;28;20151;-66
2023/11/09 06:06:08;;;;;;;0.68;0.50;;;10.10;99.90;;;;;;4999492;28;20045;-66
2023/11/09 06:08:37;;;;;;;0.60;0.52;;;10.10;99.90;;;;;;5006369;28;20482;-66
2023/11/09 06:11:04;;;;;;;1.00;0.63;;;10.00;99.90;;;;;;5003589;28;20037;-64
2023/11/09 06:13:31;;;;;;;0.75;0.40;;;10.00;99.90;;;;;;5003258;28;20108;-64
2023/11/09 06:15:57;;;;;;;0.55;0.40;;;10.00;99.90;;;;;;5029580;28;20049;-64
2023/11/09 06:18:26;;;;;;;1.13;0.35;;;10.00;99.90;;;;;;5006597;28;20041;-64
2023/11/09 06:20:55;;;;;;;0.88;0.45;;;10.00;99.90;;;;;;5000979;28;20046;-64
2023/11/09 06:23:22;;;;;;;1.00;0.57;;;9.90;99.90;;;;;;5002185;28;20068;-64
2023/11/09 06:25:51;;;;;;;1.25;0.57;;;9.80;99.90;;;;;;4999498;28;20054;-65
2023/11/09 06:28:18;;;;;;;0.43;0.20;;;9.80;99.90;;;;;;5005252;28;20462;-65
2023/11/09 06:30:43;;;;;;;2.97;0.65;;;9.80;99.90;;;;;;5009718;28;20419;-65
2023/11/09 06:33:09;;;;;;;0.98;0.57;;;9.70;99.90;;;;;;5031855;28;20042;-65
2023/11/09 06:35:35;;;;;;;0.30;0.30;;;9.70;99.90;;;;;;5009848;28;20069;-65
2023/11/09 06:38:01;;;;;;;0.65;0.28;;;9.60;99.90;;;;;;5002930;28;20038;-64
2023/11/09 06:40:31;;;;;;;1.40;0.30;;;9.60;99.90;;;;;;5006356;28;20120;-64
2023/11/09 06:42:57;;;;;;;3.20;0.38;;;9.50;99.90;;;;;;5002368;28;20046;-64
2023/11/09 06:45:23;;;;;;;0.20;0.05;;;9.40;99.90;;;;;;5001510;28;20512;-64
2023/11/09 06:47:48;;;;;;;0.65;0.35;;;9.30;99.90;;;;;;5006185;28;20494;-64
2023/11/09 06:50:19;;;;;;;2.92;0.32;;;9.30;99.90;;;;;;5004652;28;20073;-64
2023/11/09 06:52:46;;;;;;;2.55;0.82;;;9.30;99.90;;;;;;5000568;28;20039;-64
2023/11/09 06:55:17;;;;;;;1.15;0.40;;;9.30;99.90;;;;;;5004717;28;20121;-65
2023/11/09 06:57:45;;;;;;;2.10;0.15;;;9.30;99.90;;;;;;5004349;28;20053;-65
2023/11/09 07:00:12;;;;;;;0.77;0.57;;;9.20;99.90;;;;;;5007446;28;20038;-65
2023/11/09 07:02:39;;;;;;;0.20;0.10;;;9.20;99.90;;;;;;5004836;28;20054;-64
2023/11/09 07:05:08;;;;;;;0.65;0.30;;;9.20;99.90;;;;;;5007823;28;20521;-64
2023/11/09 07:07:38;;;;;;;0.52;0.10;;;9.20;99.90;;;;;;5001328;28;20108;-63
2023/11/09 07:10:07;;;;;;;0.20;0.10;;;9.20;99.90;;;;;;5036725;28;20101;-64
2023/11/09 07:12:36;;;;;;;3.47;0.15;;;9.10;99.90;;;;;;5002586;28;20073;-64
2023/11/09 07:15:03;;;;;;;0.88;0.13;;;9.10;99.90;;;;;;5004999;28;20038;-64
2023/11/09 07:17:29;;;;;;;0.45;0.28;;;9.10;99.90;;;;;;5003951;28;20068;-64
2023/11/09 07:19:54;;;;;;;4.18;0.35;;;9.00;99.90;;;;;;5001969;28;20046;-64
2023/11/09 07:22:24;;;;;;;0.88;0.75;;;9.00;99.90;;;;;;5000733;28;20042;-64
2023/11/09 07:24:56;;;;;;;0.55;0.32;;;9.00;99.90;;;;;;5007683;28;20117;-64
2023/11/09 07:27:22;;;;;;;0.32;0.17;;;9.10;99.90;;;;;;5000743;28;20114;-64
2023/11/09 07:29:48;;;;;;;0.75;0.43;;;9.00;99.90;;;;;;5006351;28;20088;-64
2023/11/09 07:32:14;;;;;;;4.10;0.38;;;9.00;99.90;;;;;;5000528;28;20045;-64
2023/11/09 07:34:39;;;;;;;1.25;0.28;;;9.00;99.90;;;;;;5003272;28;20057;-63
2023/11/09 07:37:06;;;;;;;2.95;0.17;;;9.00;99.90;;;;;;5010615;28;20601;-63
2023/11/09 07:39:32;;;;;;;2.17;0.40;;;9.00;99.90;;;;;;5007795;28;20038;-64
2023/11/09 07:42:02;;;;;;;2.40;0.32;;;9.00;99.90;;;;;;5009457;28;20492;-64
2023/11/09 07:44:28;;;;;;;3.50;0.20;;;9.00;99.90;;;;;;5003616;28;20049;-64
2023/11/09 07:46:55;;;;;;;0.15;0.10;;;9.00;99.90;;;;;;5006396;28;20501;-64
2023/11/09 07:49:30;;;;;;;0.10;0.00;;;9.00;99.90;;;;;;4999029;28;20126;-63
2023/11/09 07:52:00;;;;;;;2.85;0.30;;;9.00;99.90;;;;;;5051399;28;20046;-64
2023/11/09 07:54:29;;;;;;;6.43;0.60;;;9.00;99.90;;;;;;5004858;28;20042;-63
2023/11/09 07:56:58;;;;;;;0.30;0.20;;;9.00;99.90;;;;;;5004064;28;20504;-63
2023/11/09 07:59:24;;;;;;;0.95;0.30;;;9.00;99.90;;;;;;5006225;28;20034;-64
2023/11/09 08:01:53;;;;;;;2.05;0.40;;;9.00;99.90;;;;;;5002913;28;20046;-64
2023/11/09 08:04:18;;;;;;;0.10;0.10;;;9.00;99.90;;;;;;5007991;28;20038;-63
2023/11/09 08:06:47;;;;;;;0.13;0.10;;;9.00;99.90;;;;;;5008747;28;20049;-64
2023/11/09 08:09:18;;;;;;;3.63;0.80;;;9.10;99.90;;;;;;5009476;28;20430;-64
2023/11/09 08:11:48;;;;;;;4.97;0.35;;;9.10;99.90;;;;;;5002316;28;20066;-64
2023/11/09 08:14:17;;;;;;;0.22;0.10;;;9.10;99.90;;;;;;5010267;28;20041;-64
2023/11/09 08:16:48;;;;;;;1.30;0.40;;;9.20;99.90;;;;;;5005628;28;20448;-64
2023/11/09 08:19:21;;;;;;;0.82;0.10;;;9.30;99.90;;;;;;5012021;28;20069;-64
2023/11/09 08:21:49;;;;;;;0.10;0.10;;;9.40;99.90;;;;;;5005790;28;20577;-64
2023/11/09 08:24:15;;;;;;;0.57;0.20;;;9.40;99.90;;;;;;5006677;28;20030;-65
2023/11/09 08:26:43;;;;;;;0.95;0.40;;;9.50;99.90;;;;;;5004936;28;20072;-64
2023/11/09 08:29:09;;;;;;;1.33;0.20;;;9.70;99.90;;;;;;5004237;28;20672;-64
2023/11/09 08:31:37;;;;;;;0.22;0.05;;;9.70;99.90;;;;;;5005015;28;20048;-64
2023/11/09 08:34:03;;;;;;;0.40;0.30;;;9.80;99.90;;;;;;5007345;28;20085;-64
2023/11/09 08:36:29;;;;;;;0.40;0.20;;;9.80;99.90;;;;;;5004363;28;20034;-65
2023/11/09 08:38:56;;;;;;;1.40;0.40;;;10.00;99.90;;;;;;5007778;28;20114;-64
2023/11/09 08:41:21;;;;;;;3.20;0.43;;;10.10;99.90;;;;;;4999047;28;20100;-64
2023/11/09 08:43:49;;;;;;;1.50;0.50;;;10.30;99.90;;;;;;5011616;28;20449;-64
2023/11/09 08:46:16;;;;;;;0.32;0.28;;;10.30;99.90;;;;;;5000396;28;20045;-64
2023/11/09 08:48:41;;;;;;;1.17;0.40;;;10.30;99.90;;;;;;5009801;28;20033;-64
2023/11/09 08:51:13;;;;;;;0.60;0.40;;;10.20;99.90;;;;;;5004711;28;20755;-64
2023/11/09 08:53:40;;;;;;;3.10;0.47;;;10.20;99.90;;;;;;5004539;28;20320;-64
2023/11/09 08:56:06;;;;;;;2.45;1.05;;;10.20;99.90;;;;;;5037243;28;20050;-65
2023/11/09 08:58:36;;;;;;;2.25;0.65;;;10.20;99.90;;;;;;5006938;28;20034;-65
2023/11/09 09:01:05;;;;;;;1.08;0.25;;;10.20;99.90;;;;;;5004155;28;20109;-65
2023/11/09 09:03:34;;;;;;;0.55;0.35;;;10.30;99.90;;;;;;5002119;28;20355;-64
2023/11/09 09:06:00;;;;;;;1.15;0.40;;;10.50;99.90;;;;;;5002849;28;20034;-64
2023/11/09 09:08:26;;;;;;;1.38;0.50;;;10.50;99.90;;;;;;5004515;28;20060;-65
2023/11/09 09:10:58;;;;;;;5.50;1.70;;;10.60;99.90;;;;;;5004859;28;20040;-65
2023/11/09 09:13:25;;;;;;;1.75;0.80;;;10.50;99.90;;;;;;5039833;28;20057;-66
2023/11/09 09:15:53;;;;;;;3.60;0.98;;;10.50;99.90;;;;;;5006954;28;20030;-65
2023/11/09 09:18:19;;;;;;;1.15;0.50;;;10.40;99.90;;;;;;5009973;28;20069;-65
2023/11/09 09:20:45;;;;;;;4.05;0.82;;;10.30;99.90;;;;;;5006884;28;20049;-64
2023/11/09 09:23:10;;;;;;;2.13;0.80;;;10.20;99.90;;;;;;5002084;28;20165;-65
2023/11/09 09:25:38;;;;;;;1.85;0.70;;;10.20;99.90;;;;;;5004454;28;20045;-65
2023/11/09 09:28:04;;;;;;;6.93;1.20;;;10.20;99.90;;;;;;5005468;28;20030;-65
2023/11/09 09:30:30;;;;;;;2.53;0.73;;;10.20;99.90;;;;;;5005700;28;20045;-66
2023/11/09 09:32:56;;;;;;;1.55;0.63;;;10.40;99.90;;;;;;5006065;28;20030;-65
2023/11/09 09:35:26;;;;;;;0.40;0.38;;;10.80;99.90;;;;;;5006419;28;20045;-66
2023/11/09 09:37:53;;;;;;;1.55;0.60;;;11.50;99.90;;;;;;5007689;28;20034;-65
2023/11/09 09:40:20;;;;;;;0.60;0.40;;;12.10;99.90;;;;;;5005375;28;20038;-66
2023/11/09 09:42:50;;;;;;;2.88;1.10;;;12.70;99.90;;;;;;5000877;28;20456;-66
2023/11/09 09:45:26;;;;;;;4.00;0.57;;;13.00;99.90;;;;;;5002039;28;20073;-66
2023/11/09 09:47:53;;;;;;;0.93;0.40;;;12.80;99.90;;;;;;5003595;28;20113;-66
2023/11/09 09:50:23;;;;;;;0.82;0.30;;;12.50;99.90;;;;;;5003657;28;20486;-66
2023/11/09 09:52:55;;;;;;;2.65;0.82;;;12.20;99.90;;;;;;5004820;28;20081;-65
2023/11/09 09:55:24;;;;;;;0.77;0.35;;;11.80;99.90;;;;;;5004170;28;20567;-66
2023/11/09 09:57:53;;;;;;;4.32;0.50;;;11.50;99.90;;;;;;5001102;28;20038;-65
2023/11/09 10:00:23;;;;;;;2.88;0.25;;;11.30;99.90;;;;;;5006366;28;20116;-65
2023/11/09 10:02:50;;;;;;;5.90;0.90;;;11.00;99.90;;;;;;5000864;28;20049;-65
2023/11/09 10:05:17;;;;;;;1.13;0.57;;;10.80;99.90;;;;;;5006317;28;20509;-65
2023/11/09 10:08:10;;;;;;;1.08;0.38;;;10.70;99.90;;;;;;5008163;28;20078;-65
2023/11/09 10:10:50;;;;;;;0.90;0.30;;;10.60;99.90;;;;;;5035753;28;20040;-65
2023/11/09 10:13:18;;;;;;;0.43;0.20;;;10.50;99.90;;;;;;5002444;28;20038;-66
2023/11/09 10:15:45;;;;;;;4.18;0.32;;;10.40;99.90;;;;;;5003460;28;20045;-65
2023/11/09 10:18:12;;;;;;;6.53;0.73;;;10.40;99.90;;;;;;5000555;28;20046;-65
2023/11/09 10:20:56;;;;;;;1.27;0.30;;;10.40;99.90;;;;;;5003965;28;20051;-66
2023/11/09 10:23:22;;;;;;;2.50;0.28;;;10.40;99.90;;;;;;5002223;28;20065;-66
2023/11/09 10:25:48;;;;;;;0.60;0.43;;;10.50;99.90;;;;;;5035468;28;20081;-66
2023/11/09 10:28:14;;;;;;;4.28;0.98;;;10.50;99.90;;;;;;5004803;28;20133;-66
2023/11/09 10:30:46;;;;;;;0.65;0.20;;;10.70;99.90;;;;;;5005199;28;20069;-66
2023/11/09 10:33:18;;;;;;;2.10;0.50;;;10.80;99.90;;;;;;5008652;28;20053;-65
2023/11/09 10:35:47;;;;;;;2.20;0.30;;;10.90;99.90;;;;;;5007104;28;20096;-64
2023/11/09 10:38:16;;;;;;;0.52;0.25;;;11.00;99.90;;;;;;5038135;28;20057;-65
2023/11/09 10:40:43;;;;;;;1.13;0.22;;;11.10;99.90;;;;;;5002736;28;20089;-65
2023/11/09 10:43:14;;;;;;;1.95;0.43;;;11.20;99.90;;;;;;4998692;28;20424;-65
2023/11/09 10:45:44;;;;;;;3.65;0.60;;;11.20;99.90;;;;;;5007349;28;20068;-65
2023/11/09 10:48:23;;;;;;;2.17;0.40;;;11.30;99.90;;;;;;5008708;28;20038;-65
2023/11/09 10:50:50;;;;;;;3.70;0.63;;;11.30;99.90;;;;;;4997750;28;20060;-65
2023/11/09 10:53:21;;;;;;;8.82;1.10;;;11.40;99.90;;;;;;5010708;28;20072;-65
2023/11/09 10:55:49;;;;;;;3.03;0.65;;;11.40;99.90;;;;;;5000502;28;20048;-65
2023/11/09 10:58:23;;;;;;;1.52;0.28;;;11.40;99.90;;;;;;5008186;28;20763;-65
2023/11/09 11:00:59;;;;;;;2.53;0.75;;;11.40;99.90;;;;;;4999245;28;20096;-65
2023/11/09 11:03:27;;;;;;;1.10;0.43;;;11.40;99.90;;;;;;5005488;28;20052;-65
2023/11/09 11:06:02;;;;;;;1.50;0.50;;;11.40;99.90;;;;;;5004371;28;20498;-65
2023/11/09 11:08:35;;;;;;;3.30;0.40;;;11.40;99.90;;;;;;5003416;28;20049;-65
2023/11/09 11:11:04;;;;;;;0.93;0.47;;;11.40;99.90;;;;;;4998534;28;20033;-65
2023/11/09 11:13:33;;;;;;;0.73;0.20;;;11.40;99.90;;;;;;5011893;28;20041;-65
2023/11/09 11:16:10;;;;;;;1.75;0.30;;;11.40;99.90;;;;;;5008772;28;20033;-66
2023/11/09 11:19:13;;;;;;;2.60;0.20;;;11.40;99.90;;;;;;4998895;28;20118;-65
2023/11/09 11:22:04;;;;;;;0.93;0.28;;;11.40;99.90;;;;;;5029891;28;20041;-64
2023/11/09 11:24:54;;;;;;;11.82;5.22;;;11.30;99.90;;;;;;5005303;28;20418;-65
2023/11/09 11:27:37;;;;;;;3.33;0.73;;;11.40;99.90;;;;;;5000999;28;20045;-65
2023/11/09 11:30:14;;;;;;;0.17;0.10;;;11.40;99.90;;;;;;4999272;28;20073;-65
2023/11/09 11:32:40;;;;;;;2.55;0.35;;;11.40;99.90;;;;;;5006901;28;20072;-65
2023/11/09 11:35:06;;;;;;;1.33;0.35;;;11.30;99.90;;;;;;5000997;28;20045;-64
2023/11/09 11:37:33;;;;;;;7.57;0.85;;;11.40;99.90;;;;;;5004081;28;20574;-65
2023/11/09 11:40:05;;;;;;;1.10;0.25;;;11.30;99.90;;;;;;5000559;28;20038;-65
2023/11/09 11:42:34;;;;;;;3.83;0.75;;;11.40;99.90;;;;;;5002255;28;20092;-64
2023/11/09 11:45:00;;;;;;;11.80;0.80;;;11.40;99.90;;;;;;5007304;28;20069;-65
2023/11/09 11:47:30;;;;;;;1.95;0.45;;;11.30;99.90;;;;;;5030034;28;20062;-67
2023/11/09 11:50:00;;;;;;;7.97;0.73;;;11.20;99.90;;;;;;5004536;28;20057;-67
2023/11/09 11:52:30;;;;;;;4.75;0.52;;;11.10;99.90;;;;;;4996276;28;20126;-66
2023/11/09 11:55:00;;;;;;;1.27;0.30;;;11.10;99.90;;;;;;5001699;28;20132;-65
2023/11/09 11:57:34;;;;;;;1.55;0.50;;;11.10;99.90;;;;;;5007354;28;20405;-65
2023/11/09 12:00:08;;;;;;;1.25;0.32;;;11.10;99.90;;;;;;5003604;28;20132;-65
2023/11/09 12:03:03;;;;;;;0.82;0.38;;;11.10;99.90;;;;;;4999898;28;20084;-65
2023/11/09 12:05:31;;;;;;;2.78;0.43;;;11.00;99.90;;;;;;5001271;28;20157;-65
2023/11/09 12:08:16;;;;;;;1.52;0.43;;;11.00;99.90;;;;;;5004021;28;20100;-65
2023/11/09 12:10:43;;;;;;;11.93;1.27;;;11.00;99.90;;;;;;5004261;28;20088;-66
2023/11/09 12:13:09;;;;;;;4.78;0.55;;;10.90;99.90;;;;;;5004510;28;20617;-66
2023/11/09 12:15:38;;;;;;;4.68;0.85;;;11.00;99.90;;;;;;5006321;28;20394;-66
2023/11/09 12:18:06;;;;;;;2.22;0.88;;;11.00;99.90;;;;;;4999742;28;20045;-66
2023/11/09 12:20:33;;;;;;;5.45;0.63;;;11.10;99.90;;;;;;5036088;28;20042;-66
2023/11/09 12:23:11;;;;;;;1.98;0.43;;;11.10;99.90;;;;;;5004928;28;20046;-66
2023/11/09 12:25:53;;;;;;;3.75;0.55;;;11.10;99.90;;;;;;5035430;28;20073;-66
2023/11/09 12:28:19;;;;;;;3.25;0.88;;;11.10;99.90;;;;;;5004674;28;20153;-66
2023/11/09 12:30:46;;;;;;;1.60;0.75;;;11.20;99.90;;;;;;5034339;28;20139;-67
2023/11/09 12:33:15;;;;;;;2.92;0.60;;;11.20;99.90;;;;;;5005067;28;20614;-67
2023/11/09 12:35:59;;;;;;;2.80;0.70;;;11.20;99.90;;;;;;5002816;28;20041;-66
2023/11/09 12:38:26;;;;;;;7.55;0.98;;;11.20;99.90;;;;;;5000548;28;20042;-67
2023/11/09 12:40:52;;;;;;;1.65;0.47;;;11.20;99.90;;;;;;5006098;28;20529;-67
2023/11/09 12:43:18;;;;;;;4.53;0.65;;;11.10;99.90;;;;;;4998016;28;20122;-67
2023/11/09 12:46:08;;;;;;;0.43;0.20;;;11.10;99.90;;;;;;4997640;28;20100;-67
2023/11/09 12:48:44;;;;;;;5.00;0.52;;;11.10;99.90;;;;;;5007515;28;20061;-66
2023/11/09 12:51:16;;;;;;;3.28;0.10;;;11.10;99.90;;;;;;5037678;28;20061;-66
2023/11/09 12:53:44;;;;;;;0.70;0.28;;;11.00;99.90;;;;;;5006584;28;20387;-66
2023/11/09 12:56:13;;;;;;;1.23;0.35;;;11.00;99.90;;;;;;5007565;28;20323;-68
2023/11/09 12:58:43;;;;;;;0.65;0.22;;;10.90;99.90;;;;;;5011799;28;20128;-67
2023/11/09 13:01:14;;;;;;;3.50;0.30;;;10.90;99.90;;;;;;5036467;28;20727;-67
2023/11/09 13:03:46;;;;;;;5.22;0.80;;;10.80;99.90;;;;;;5010366;28;20056;-66
2023/11/09 13:06:13;;;;;;;4.10;1.40;;;10.80;99.90;;;;;;5000512;28;20049;-66
2023/11/09 13:08:41;;;;;;;1.63;0.50;;;10.70;99.90;;;;;;5011331;28;20041;-66